Terminal Aerodrome Forecast
Issued by NWS

Home | Current Version | Previous Version | Text Only | Print | Product List | Glossary On
Versions: 1 2 3 4 5 6 7 8 9 10 11 12 13 14 15 16 17 18 19 20 21 22 23 24 25 26 27
000
FTUS45 KTWC 251700
TAFOLS
TAF
KOLS 251722Z 2518/2618 VRB04KT P6SM FEW100
     FM252000 23008KT P6SM VCTS SCT070CB BKN200
      TEMPO 2520/2522 VRB20G35KT 3SM TSRA BKN070CB
     FM252200 30008KT P6SM SCT080 BKN120
      TEMPO 2522/2601 -SHRA
     FM260500 VRB03KT P6SM SCT100 BKN200=

USA.gov is the U.S. government's official web portal to all federal, state and local government web resources and services.